Time;durP1;ratioP1;P1;durP2;ratioP2;P2;SDS_P1;SDS_P2;PMS_P1;PMS_P2;Temp;Humidity;BMP_temperature;BMP_pressure;BME280_temperature;BME280_humidity;BME280_pressure;Samples;Min_cycle;Max_cycle;Signal;HPM_P1;HPM_P2
2023/10/05 00:02:47;;;;;;;7.22;5.57;;;;;;;8.54;78.52;97196.81;6320366;28;22022;-70
2023/10/05 00:05:56;;;;;;;7.32;5.15;;;;;;;8.46;78.92;97192.88;6320598;28;20235;-70
2023/10/05 00:09:11;;;;;;;7.10;5.40;;;;;;;8.45;79.03;97191.22;6320091;28;20048;-69
2023/10/05 00:12:22;;;;;;;7.65;5.47;;;;;;;8.41;79.19;97195.78;6320503;28;20051;-68
2023/10/05 00:15:27;;;;;;;6.70;5.60;;;;;;;8.44;78.90;97190.38;6320724;28;20050;-69
2023/10/05 00:18:33;;;;;;;7.20;5.40;;;;;;;8.42;78.75;97197.44;6320095;28;20043;-71
2023/10/05 00:21:39;;;;;;;9.60;5.33;;;;;;;8.35;79.23;97198.69;6319200;28;20064;-71
2023/10/05 00:24:45;;;;;;;7.30;5.32;;;;;;;8.36;79.18;97192.50;6319496;28;20156;-71
2023/10/05 00:27:51;;;;;;;10.02;6.25;;;;;;;8.39;78.72;97197.63;6319997;28;20035;-69
2023/10/05 00:31:00;;;;;;;6.90;5.22;;;;;;;8.29;79.10;97201.59;6319672;28;20035;-69
2023/10/05 00:37:28;;;;;;;5.47;4.90;;;;;;;8.38;78.71;97190.66;6319392;28;20390;-69
2023/10/05 00:43:31;;;;;;;7.43;5.05;;;;;;;8.62;78.34;97182.47;6319505;28;20051;-69
2023/10/05 00:46:37;;;;;;;7.97;5.03;;;;;;;8.50;78.08;97192.66;6319255;28;20133;-69
2023/10/05 00:52:52;;;;;;;7.03;5.00;;;;;;;8.42;78.71;97194.00;6319803;28;20425;-69
2023/10/05 00:56:22;;;;;;;6.22;5.03;;;;;;;8.41;78.46;97190.53;6317952;28;20524;-69
2023/10/05 00:59:27;;;;;;;6.70;5.28;;;;;;;8.44;78.41;97195.63;6318896;28;20048;-70
2023/10/05 01:03:10;;;;;;;8.48;5.50;;;;;;;8.34;78.24;97189.09;6319168;28;20044;-70
2023/10/05 01:06:12;;;;;;;7.93;6.15;;;;;;;8.22;78.63;97184.47;6318963;28;20416;-70
2023/10/05 01:12:37;;;;;;;7.63;5.22;;;;;;;8.04;79.06;97191.50;6319103;28;20047;-70
2023/10/05 01:15:39;;;;;;;7.57;5.28;;;;;;;8.08;78.69;97190.41;6318331;28;20044;-70
2023/10/05 01:18:44;;;;;;;8.32;5.70;;;;;;;7.91;79.18;97191.25;6301527;28;20036;-70
2023/10/05 01:21:51;;;;;;;5.90;4.57;;;;;;;7.89;79.25;97203.56;6318098;28;20052;-70
2023/10/05 01:24:52;;;;;;;7.30;5.22;;;;;;;7.79;79.60;97197.94;6318601;28;20060;-70
2023/10/05 01:27:59;;;;;;;5.50;4.82;;;;;;;7.75;79.41;97196.38;6318965;28;20126;-70
2023/10/05 01:31:07;;;;;;;10.40;5.93;;;;;;;8.03;78.74;97202.88;6318951;28;20048;-70
2023/10/05 01:34:10;;;;;;;6.22;4.80;;;;;;;7.92;78.83;97195.53;6317805;28;20035;-70
2023/10/05 01:37:12;;;;;;;8.48;5.70;;;;;;;7.89;78.65;97182.59;6319866;28;20064;-70
2023/10/05 01:40:23;;;;;;;9.55;5.82;;;;;;;7.92;78.74;97190.31;6318742;28;20050;-70
2023/10/05 01:43:29;;;;;;;7.15;5.40;;;;;;;7.77;79.04;97188.44;6317402;28;20074;-70
2023/10/05 01:46:35;;;;;;;8.73;5.28;;;;;;;7.72;79.16;97195.69;6317068;28;20051;-70
2023/10/05 01:49:39;;;;;;;6.75;5.40;;;;;;;7.77;79.31;97193.69;6320319;28;20509;-71
2023/10/05 01:52:49;;;;;;;6.38;5.18;;;;;;;7.73;79.38;97197.38;6323487;28;20044;-69
2023/10/05 01:55:52;;;;;;;9.18;6.50;;;;;;;7.62;80.00;97190.03;6323586;28;20663;-70
2023/10/05 01:58:55;;;;;;;7.70;5.60;;;;;;;7.59;79.62;97185.81;6323266;28;20043;-70
2023/10/05 02:02:00;;;;;;;8.55;5.70;;;;;;;7.58;79.61;97191.94;6322726;28;20109;-69
2023/10/05 02:05:01;;;;;;;6.63;5.78;;;;;;;7.59;79.72;97180.56;6322771;28;20544;-70
2023/10/05 02:08:05;;;;;;;6.65;5.07;;;;;;;7.65;79.72;97179.41;6322379;28;20059;-70
2023/10/05 02:11:09;;;;;;;7.30;5.18;;;;;;;7.58;79.77;97180.63;6322625;28;20433;-69
2023/10/05 02:14:13;;;;;;;;;;;;;;;7.52;79.81;97187.00;6323119;28;20047;-69
2023/10/05 02:17:22;;;;;;;12.88;5.47;;;;;;;7.49;80.13;97188.91;6322844;28;19920;-70
2023/10/05 02:23:40;;;;;;;8.50;6.18;;;;;;;7.42;80.27;97178.75;6322710;28;20043;-70
2023/10/05 02:27:29;;;;;;;8.82;5.68;;;;;;;7.52;79.82;97180.91;6320512;28;20048;-70
2023/10/05 02:30:09;;;;;;;9.93;6.20;;;;;;;7.50;80.21;97180.13;6312831;28;20047;-70
2023/10/05 02:33:14;;;;;;;10.27;6.32;;;;;;;7.45;80.17;97188.22;6322438;28;20052;-70
2023/10/05 02:36:21;;;;;;;8.05;5.90;;;;;;;7.42;80.03;97177.91;6321125;28;20048;-69
2023/10/05 02:39:27;;;;;;;9.55;5.88;;;;;;;7.52;79.63;97168.66;6321652;28;20465;-69
2023/10/05 02:42:35;;;;;;;13.00;8.73;;;;;;;7.74;79.37;97178.97;6321876;28;20788;-69
2023/10/05 02:45:42;;;;;;;8.40;6.03;;;;;;;7.75;79.32;97185.06;6321712;28;20047;-69
2023/10/05 02:48:51;;;;;;;8.80;6.32;;;;;;;7.86;78.82;97185.38;6322343;28;20044;-69
2023/10/05 02:51:54;;;;;;;8.68;5.80;;;;;;;7.97;78.67;97193.56;6322370;28;20044;-69
2023/10/05 02:54:56;;;;;;;8.77;5.32;;;;;;;8.02;78.21;97185.47;6321565;28;20089;-69
2023/10/05 02:58:00;;;;;;;11.30;5.90;;;;;;;8.12;77.70;97188.47;6322078;28;20048;-69
2023/10/05 03:01:09;;;;;;;7.30;5.47;;;;;;;8.18;77.54;97182.94;6320782;28;20139;-69
2023/10/05 03:07:18;;;;;;;9.45;5.15;;;;;;;8.21;77.45;97182.75;6321270;28;20056;-70
2023/10/05 03:10:26;;;;;;;7.13;5.13;;;;;;;8.38;77.03;97190.66;6321581;28;20056;-71
2023/10/05 03:13:27;;;;;;;7.15;5.55;;;;;;;8.52;76.89;97193.44;6321068;28;20051;-69
2023/10/05 03:16:42;;;;;;;;;;;;;;;8.66;76.01;97190.13;6321998;28;20043;-69
2023/10/05 03:19:46;;;;;;;;;;;;;;;8.83;75.58;97191.84;6321589;28;19920;-69
2023/10/05 03:22:47;;;;;;;9.23;5.03;;;;;;;8.71;76.05;97189.84;6319327;28;19920;-69
2023/10/05 03:25:52;;;;;;;7.35;5.32;;;;;;;8.74;76.10;97192.31;6320938;28;20048;-69
2023/10/05 03:29:00;;;;;;;7.07;5.20;;;;;;;8.79;76.47;97185.06;6320867;28;20487;-70
2023/10/05 03:35:09;;;;;;;7.93;5.15;;;;;;;9.01;76.00;97189.19;6320961;28;20485;-70
2023/10/05 03:38:19;;;;;;;9.43;5.43;;;;;;;9.13;75.67;97193.75;6320390;28;20051;-70
2023/10/05 03:41:26;;;;;;;9.05;5.00;;;;;;;9.37;74.85;97200.31;6320834;28;20051;-69
2023/10/05 03:44:31;;;;;;;5.88;4.70;;;;;;;9.42;74.69;97195.63;6320595;28;20501;-70
2023/10/05 03:47:39;;;;;;;8.27;4.63;;;;;;;9.66;73.81;97192.59;6320507;28;20228;-71
2023/10/05 03:50:44;;;;;;;6.30;4.88;;;;;;;9.74;73.40;97190.38;6320428;28;20052;-70
2023/10/05 03:53:51;;;;;;;7.70;4.97;;;;;;;9.94;72.80;97201.56;6320418;28;20071;-70
2023/10/05 03:57:10;;;;;;;5.68;4.45;;;;;;;10.05;72.49;97199.16;6319913;28;20433;-70
2023/10/05 04:03:26;;;;;;;6.70;4.32;;;;;;;10.29;71.55;97203.00;6320168;28;20036;-70
2023/10/05 04:06:28;;;;;;;8.88;5.35;;;;;;;10.50;70.42;97205.31;6319385;28;20062;-70
2023/10/05 04:09:30;;;;;;;7.93;4.80;;;;;;;10.64;70.15;97213.22;6320328;28;20044;-69
2023/10/05 04:12:34;;;;;;;5.93;4.32;;;;;;;10.61;70.27;97210.78;6319363;28;20040;-70
2023/10/05 04:15:40;;;;;;;5.68;4.00;;;;;;;10.74;69.59;97198.59;6319587;28;20059;-69
2023/10/05 04:18:47;;;;;;;8.23;4.50;;;;;;;10.78;69.75;97194.84;6319936;28;20055;-69
2023/10/05 04:21:56;;;;;;;6.80;4.60;;;;;;;10.98;69.07;97211.19;6319826;28;20044;-70
2023/10/05 04:25:06;;;;;;;6.32;4.60;;;;;;;11.14;68.61;97214.59;6318619;28;20429;-69
2023/10/05 04:28:08;;;;;;;7.20;4.70;;;;;;;11.27;68.22;97211.22;6320278;28;20133;-68
2023/10/05 04:31:13;;;;;;;8.25;4.38;;;;;;;11.37;67.96;97207.03;6319276;28;20059;-69
2023/10/05 04:34:21;;;;;;;10.60;5.35;;;;;;;11.40;68.13;97218.22;6319113;28;20481;-69
2023/10/05 04:37:25;;;;;;;5.70;3.72;;;;;;;11.54;68.04;97221.78;6319617;28;20040;-70
2023/10/05 04:40:27;;;;;;;8.93;4.18;;;;;;;11.64;67.85;97226.38;6318973;28;20040;-70
2023/10/05 04:43:28;;;;;;;6.40;3.90;;;;;;;11.80;67.93;97220.13;6319185;28;20070;-69
2023/10/05 04:46:34;;;;;;;4.75;3.83;;;;;;;11.98;67.21;97218.97;6319159;28;20052;-70
2023/10/05 04:49:40;;;;;;;8.27;3.90;;;;;;;12.17;66.90;97223.03;6319516;28;20043;-69
2023/10/05 04:52:50;;;;;;;5.75;4.28;;;;;;;12.34;66.73;97225.41;6318849;28;20452;-70
2023/10/05 04:56:00;;;;;;;6.53;4.07;;;;;;;12.54;65.87;97227.59;6319212;28;20504;-70
2023/10/05 05:02:21;;;;;;;6.55;3.92;;;;;;;12.90;65.05;97227.81;6318516;28;20051;-70
2023/10/05 05:05:52;;;;;;;6.18;4.03;;;;;;;12.85;64.90;97209.66;6319303;28;20043;-71
2023/10/05 05:08:58;;;;;;;5.68;4.03;;;;;;;13.12;64.71;97221.91;6319200;28;20532;-69
2023/10/05 05:12:08;;;;;;;5.30;3.83;;;;;;;13.36;63.87;97230.81;6318841;28;20052;-69
2023/10/05 05:15:09;;;;;;;5.43;3.42;;;;;;;13.54;63.67;97227.81;6318226;28;20506;-69
2023/10/05 05:18:14;;;;;;;7.50;3.90;;;;;;;13.71;63.40;97235.38;6318627;28;20503;-69
2023/10/05 05:21:19;;;;;;;5.70;4.63;;;;;;;13.88;62.80;97232.34;6318642;28;20333;-69
2023/10/05 05:24:28;;;;;;;5.80;3.35;;;;;;;14.11;62.45;97227.19;6321934;28;20048;-68
2023/10/05 05:27:33;;;;;;;4.03;3.35;;;;;;;17.10;56.50;97234.50;6323938;28;20138;-70
2023/10/05 05:30:36;;;;;;;4.25;3.03;;;;;;;21.35;47.00;97242.66;6323514;28;20047;-70
2023/10/05 05:33:41;;;;;;;5.50;3.47;;;;;;;24.76;39.58;97243.75;6323799;28;20158;-69
2023/10/05 05:36:43;;;;;;;4.63;2.72;;;;;;;26.99;35.11;97247.25;6323151;28;20077;-69
2023/10/05 05:39:49;;;;;;;5.70;2.28;;;;;;;29.31;31.40;97242.13;6323771;28;20514;-68
2023/10/05 05:42:54;;;;;;;2.00;1.80;;;;;;;31.20;28.41;97245.59;6322534;28;20044;-69
2023/10/05 05:46:01;;;;;;;5.22;1.90;;;;;;;32.78;25.97;97247.66;6322318;28;20181;-69
2023/10/05 05:49:08;;;;;;;3.13;1.77;;;;;;;33.66;24.16;97247.94;6323403;28;20127;-68
2023/10/05 05:52:12;;;;;;;1.52;1.25;;;;;;;34.72;22.97;97248.59;6322267;28;20070;-70
2023/10/05 05:55:21;;;;;;;4.38;1.83;;;;;;;35.56;22.27;97250.63;6322110;28;20485;-68
2023/10/05 05:58:25;;;;;;;3.38;1.65;;;;;;;36.05;20.89;97242.59;6322818;28;20062;-68
2023/10/05 06:01:27;;;;;;;2.33;1.42;;;;;;;36.82;19.57;97235.28;6322606;28;20044;-68
2023/10/05 06:04:36;;;;;;;3.95;1.80;;;;;;;37.59;19.03;97244.22;6323190;28;20051;-68
2023/10/05 06:07:42;;;;;;;4.93;1.98;;;;;;;38.11;18.23;97235.22;6322176;28;20087;-68
2023/10/05 06:10:46;;;;;;;2.58;1.83;;;;;;;37.93;17.90;97229.03;6322356;28;20410;-68
2023/10/05 06:13:49;;;;;;;3.10;2.65;;;;;;;37.38;18.30;97232.25;6322688;28;20036;-69
2023/10/05 06:16:53;;;;;;;1.58;1.40;;;;;;;37.84;17.84;97225.16;6322672;28;20056;-69
2023/10/05 06:19:57;;;;;;;2.75;1.20;;;;;;;37.24;17.31;97198.94;6322745;28;20039;-69
2023/10/05 06:23:00;;;;;;;2.22;1.70;;;;;;;35.54;19.20;97219.91;6321613;28;20232;-69
2023/10/05 06:26:07;;;;;;;3.72;2.05;;;;;;;35.90;19.36;97223.19;6322618;28;20047;-69
2023/10/05 06:29:13;;;;;;;3.53;1.98;;;;;;;36.14;18.82;97213.66;6322487;28;20440;-69
2023/10/05 06:32:18;;;;;;;2.33;1.50;;;;;;;36.38;18.17;97214.22;6322204;28;20052;-68
2023/10/05 06:35:19;;;;;;;2.13;1.30;;;;;;;35.61;18.92;97219.75;6321485;28;20064;-69
2023/10/05 06:38:27;;;;;;;2.50;1.60;;;;;;;36.08;18.11;97220.16;6322275;28;20417;-71
2023/10/05 06:41:34;;;;;;;3.55;1.90;;;;;;;37.16;17.80;97218.63;6322247;28;20052;-68
2023/10/05 06:44:39;;;;;;;4.40;1.50;;;;;;;37.98;16.89;97214.53;6322390;28;20532;-68
2023/10/05 06:47:42;;;;;;;7.22;1.42;;;;;;;39.76;16.02;97216.00;6320499;28;20174;-68
2023/10/05 06:50:48;;;;;;;2.13;1.65;;;;;;;40.63;14.77;97214.88;6321963;28;20143;-68
2023/10/05 06:53:49;;;;;;;1.33;1.08;;;;;;;38.61;15.56;97212.63;6321692;28;20048;-69
2023/10/05 06:56:56;;;;;;;3.25;1.65;;;;;;;38.09;16.24;97198.94;6322009;28;20044;-68
2023/10/05 06:59:57;;;;;;;7.05;1.27;;;;;;;38.12;16.49;97203.91;6321505;28;20062;-68
2023/10/05 07:03:06;;;;;;;3.05;1.67;;;;;;;37.84;15.92;97203.19;6321748;28;20047;-68
2023/10/05 07:06:08;;;;;;;2.35;1.65;;;;;;;34.33;19.03;97187.41;6321312;28;20052;-68
2023/10/05 07:09:11;;;;;;;3.83;2.03;;;;;;;32.10;21.41;97196.16;6321027;28;20170;-69
2023/10/05 07:12:16;;;;;;;1.88;1.58;;;;;;;28.51;25.23;97166.19;6321649;28;20054;-69
2023/10/05 07:15:20;;;;;;;2.30;1.50;;;;;;;26.67;28.15;97163.06;6320924;28;20467;-69
2023/10/05 07:18:24;;;;;;;3.90;2.20;;;;;;;29.33;25.54;97166.84;6321217;28;20642;-68
2023/10/05 07:21:29;;;;;;;4.45;1.92;;;;;;;30.16;23.48;97169.72;6320704;28;20047;-69
2023/10/05 07:24:30;;;;;;;3.05;2.30;;;;;;;27.84;25.91;97164.31;6320393;28;20052;-69
2023/10/05 07:27:35;;;;;;;6.18;2.47;;;;;;;25.96;28.49;97152.16;6320983;28;20437;-68
2023/10/05 07:30:40;;;;;;;4.60;2.88;;;;;;;24.16;31.05;97149.31;6320972;28;20043;-69
2023/10/05 07:33:44;;;;;;;4.93;2.97;;;;;;;24.78;30.76;97134.06;6320915;28;20048;-68
2023/10/05 07:36:48;;;;;;;4.50;2.35;;;;;;;27.16;27.46;97146.03;6319426;28;20048;-69
2023/10/05 07:39:55;;;;;;;4.13;2.15;;;;;;;26.37;27.87;97141.56;6321057;28;20409;-69
2023/10/05 07:42:59;;;;;;;3.75;2.20;;;;;;;26.13;28.45;97140.09;6320393;28;20051;-68
2023/10/05 07:46:00;;;;;;;3.60;1.63;;;;;;;24.71;29.93;97141.19;6320372;28;20043;-68
2023/10/05 07:49:05;;;;;;;2.80;2.33;;;;;;;23.80;31.58;97134.75;6319942;28;20047;-69
2023/10/05 07:52:11;;;;;;;2.63;1.60;;;;;;;26.10;28.22;97123.44;6320746;28;20426;-68
2023/10/05 07:55:16;;;;;;;3.70;1.80;;;;;;;28.52;25.21;97143.50;6320553;28;20528;-70
2023/10/05 07:58:19;;;;;;;4.22;1.60;;;;;;;26.78;27.01;97122.06;6320432;28;20576;-69
2023/10/05 08:01:22;;;;;;;2.50;1.98;;;;;;;25.34;29.51;97126.44;6320425;28;20421;-69
2023/10/05 08:04:24;;;;;;;4.45;1.95;;;;;;;23.93;31.40;97103.59;6320062;28;20063;-68
2023/10/05 08:07:28;;;;;;;3.90;1.60;;;;;;;22.79;33.23;97110.22;6319834;28;20063;-68
2023/10/05 08:10:31;;;;;;;5.63;1.80;;;;;;;22.19;34.64;97113.25;6319790;28;20047;-68
2023/10/05 08:13:35;;;;;;;2.40;1.88;;;;;;;21.35;36.41;97103.47;6318396;28;20048;-69
2023/10/05 08:16:42;;;;;;;3.78;2.20;;;;;;;21.13;36.62;97104.88;6320018;28;20445;-69
2023/10/05 08:19:46;;;;;;;4.70;3.63;;;;;;;21.36;36.63;97108.66;6319810;28;20035;-70
2023/10/05 08:22:50;;;;;;;6.35;4.35;;;;;;;22.76;34.35;97110.56;6319977;28;20040;-68
2023/10/05 08:25:52;;;;;;;5.68;3.42;;;;;;;25.42;30.21;97115.59;6319771;28;20036;-70
2023/10/05 08:28:53;;;;;;;5.78;2.55;;;;;;;25.15;30.44;97118.94;6320003;28;20039;-68
2023/10/05 08:31:55;;;;;;;3.25;2.15;;;;;;;24.35;31.32;97112.22;6319437;28;20509;-69
2023/10/05 08:35:06;;;;;;;3.58;2.40;;;;;;;23.67;32.80;97106.59;6319463;28;20043;-68
2023/10/05 08:52:42;;;;;;;4.80;2.50;;;;;;;22.09;35.99;97109.88;6299145;27;1948396;-67
2023/10/05 08:55:46;;;;;;;4.97;2.75;;;;;;;21.80;36.75;97095.09;6321883;28;20533;-67
2023/10/05 08:58:53;;;;;;;3.75;2.63;;;;;;;21.74;37.18;97095.75;6340989;28;20039;-68
2023/10/05 09:02:00;;;;;;;4.15;2.92;;;;;;;21.41;37.96;97108.19;6340559;28;20051;-67
2023/10/05 09:05:07;;;;;;;2.63;2.10;;;;;;;21.27;38.29;97117.66;6321546;28;20047;-68
2023/10/05 09:08:09;;;;;;;5.35;2.80;;;;;;;21.13;38.61;97099.53;6340152;28;20036;-68
2023/10/05 09:11:14;;;;;;;5.05;2.78;;;;;;;21.02;39.02;97104.13;6339837;28;20439;-68
2023/10/05 09:14:27;;;;;;;5.88;4.10;;;;;;;21.40;38.42;97101.16;6340379;28;20047;-69
2023/10/05 09:17:34;;;;;;;6.80;3.97;;;;;;;22.16;37.11;97108.19;6340252;28;20414;-69
2023/10/05 09:20:38;;;;;;;5.32;3.53;;;;;;;22.58;36.62;97101.84;6340047;28;20047;-68
2023/10/05 09:23:42;;;;;;;5.28;2.70;;;;;;;22.57;36.23;97094.81;6339958;28;20120;-68
2023/10/05 09:26:51;;;;;;;4.88;3.17;;;;;;;22.58;36.24;97091.13;6321533;28;20595;-68
2023/10/05 09:30:09;;;;;;;6.85;3.35;;;;;;;22.88;35.61;97086.91;6340265;28;20126;-69
2023/10/05 09:33:15;;;;;;;3.45;2.28;;;;;;;22.77;35.54;97101.50;6339969;28;20035;-67
2023/10/05 09:36:19;;;;;;;4.03;2.70;;;;;;;22.71;35.77;97090.63;6321933;28;20498;-67
2023/10/05 09:39:26;;;;;;;5.80;2.65;;;;;;;23.42;34.62;97067.44;6339761;28;20134;-67
2023/10/05 09:42:27;;;;;;;5.72;4.30;;;;;;;24.95;32.11;97087.13;6339146;28;20048;-67
2023/10/05 09:45:35;;;;;;;4.45;2.20;;;;;;;25.46;31.59;97073.75;6339471;28;20044;-67
2023/10/05 09:48:39;;;;;;;3.10;2.63;;;;;;;26.06;30.44;97100.59;6339361;28;20043;-67
2023/10/05 09:51:48;;;;;;;4.43;2.80;;;;;;;24.68;32.54;97071.59;6333160;28;20064;-68
2023/10/05 09:54:53;;;;;;;4.85;2.80;;;;;;;23.11;34.85;97086.19;6304323;28;20047;-67
2023/10/05 09:58:05;;;;;;;5.20;3.78;;;;;;;22.14;36.75;97065.50;6322377;28;20525;-67
2023/10/05 10:01:40;;;;;;;4.43;2.47;;;;;;;21.52;37.56;97073.94;6322325;28;20047;-67
2023/10/05 10:04:37;;;;;;;3.60;2.78;;;;;;;20.85;39.18;97065.75;6317688;28;20109;-67
2023/10/05 10:07:49;;;;;;;8.05;4.30;;;;;;;20.58;39.97;97069.47;6322117;28;20207;-67
2023/10/05 10:11:18;;;;;;;7.38;4.40;;;;;;;20.51;40.25;97068.38;6322102;28;20556;-67
2023/10/05 10:14:26;;;;;;;8.43;4.72;;;;;;;20.49;40.50;97081.03;6304501;28;20036;-67
2023/10/05 10:17:34;;;;;;;7.32;4.70;;;;;;;20.24;41.00;97068.50;6321945;28;20040;-67
2023/10/05 10:20:39;;;;;;;7.30;5.00;;;;;;;19.94;41.36;97066.09;6321730;28;20032;-66
2023/10/05 10:23:49;;;;;;;6.50;4.47;;;;;;;19.70;41.86;97063.19;6321722;28;20027;-66
2023/10/05 10:26:53;;;;;;;5.40;3.20;;;;;;;19.59;41.89;97066.91;6321719;28;20036;-68
2023/10/05 10:29:59;;;;;;;3.47;3.17;;;;;;;19.47;42.17;97089.44;6321678;28;20051;-67
2023/10/05 10:33:30;;;;;;;10.00;4.18;;;;;;;19.36;42.89;97071.78;6321868;28;20405;-67
2023/10/05 10:36:56;;;;;;;4.95;2.90;;;;;;;19.25;43.02;97069.34;6321108;28;20055;-68
2023/10/05 10:39:59;;;;;;;7.63;3.47;;;;;;;19.12;43.40;97069.69;6321568;28;20125;-66
2023/10/05 10:46:13;;;;;;;4.00;2.45;;;;;;;18.88;44.04;97064.03;6321324;28;20040;-67
2023/10/05 10:49:19;;;;;;;3.60;3.00;;;;;;;18.74;43.77;97060.03;6320244;28;20048;-67
2023/10/05 10:52:24;;;;;;;3.53;3.00;;;;;;;18.63;44.01;97055.69;6320572;28;20070;-68
2023/10/05 10:55:39;;;;;;;6.78;3.72;;;;;;;18.67;43.97;97058.91;6321080;28;20517;-67
2023/10/05 10:58:56;;;;;;;5.88;3.10;;;;;;;18.61;44.58;97055.81;6321022;28;20410;-68
2023/10/05 11:02:11;;;;;;;;;;;;;;;18.80;43.87;97054.97;6321273;28;20417;-68
2023/10/05 11:05:16;;;;;;;11.95;8.07;;;;;;;18.56;44.61;97054.59;6319725;28;20018;-67
2023/10/05 11:08:20;;;;;;;18.45;12.80;;;;;;;18.60;44.19;97042.66;6320556;28;20044;-68
2023/10/05 11:11:25;;;;;;;11.80;7.00;;;;;;;18.58;43.54;97037.47;6320366;28;20066;-68
2023/10/05 11:14:31;;;;;;;12.23;7.30;;;;;;;18.57;43.69;97032.28;6320374;28;20043;-67
2023/10/05 11:17:36;;;;;;;11.77;8.27;;;;;;;18.53;43.77;97036.22;6320314;28;20125;-67
2023/10/05 11:20:41;;;;;;;12.57;7.40;;;;;;;18.65;43.49;97029.72;6320917;28;20036;-66
2023/10/05 11:23:56;;;;;;;13.25;7.78;;;;;;;18.95;42.92;97030.47;6320291;28;20036;-68
2023/10/05 11:30:05;;;;;;;5.13;4.47;;;;;;;18.97;42.64;97017.84;6319966;28;20040;-68
2023/10/05 11:33:15;;;;;;;6.70;4.70;;;;;;;18.90;42.87;97016.75;6319973;28;20044;-67
2023/10/05 11:36:33;;;;;;;6.15;5.55;;;;;;;18.77;43.34;97012.59;6320029;28;20043;-67
2023/10/05 11:39:39;;;;;;;7.72;4.80;;;;;;;18.60;43.46;97022.19;6320012;28;20059;-68
2023/10/05 11:42:43;;;;;;;5.80;5.18;;;;;;;18.40;44.35;97016.06;6302054;28;20040;-67
2023/10/05 11:46:17;;;;;;;8.98;6.28;;;;;;;18.03;44.83;97007.16;6320222;28;20036;-68
2023/10/05 11:49:32;;;;;;;8.75;5.55;;;;;;;17.96;45.38;97006.91;6320077;28;20044;-67
2023/10/05 11:52:40;;;;;;;7.38;5.50;;;;;;;17.99;45.48;97000.47;6319303;28;20055;-68
2023/10/05 11:55:48;;;;;;;5.25;4.60;;;;;;;17.82;45.87;96996.69;6320031;28;20260;-67
2023/10/05 11:58:50;;;;;;;6.60;5.40;;;;;;;17.74;46.13;97000.03;6319567;28;20047;-67
2023/10/05 12:01:51;;;;;;;6.60;4.38;;;;;;;17.53;46.78;97004.66;6318496;28;20048;-68
2023/10/05 12:05:03;;;;;;;7.95;6.30;;;;;;;17.44;47.15;97001.84;6319408;28;20046;-67
2023/10/05 12:08:05;;;;;;;7.28;5.70;;;;;;;17.27;47.62;97005.22;6300587;28;20040;-67
2023/10/05 12:11:10;;;;;;;7.78;5.70;;;;;;;17.19;48.07;96997.91;6317872;28;20063;-68
2023/10/05 12:14:16;;;;;;;8.65;5.03;;;;;;;17.11;48.14;96988.94;6319188;28;20039;-67
2023/10/05 12:17:21;;;;;;;6.82;4.50;;;;;;;17.05;48.39;96990.31;6319382;28;20036;-68
2023/10/05 12:20:24;;;;;;;5.30;4.78;;;;;;;16.93;48.81;96989.59;6318840;28;20414;-66
2023/10/05 12:23:31;;;;;;;7.13;4.65;;;;;;;16.92;48.88;96984.41;6318823;28;20044;-67
2023/10/05 12:26:35;;;;;;;6.85;4.40;;;;;;;16.92;48.93;96995.03;6301262;28;20040;-65
2023/10/05 12:29:38;;;;;;;9.05;5.55;;;;;;;16.86;48.85;96984.97;6300732;28;20048;-67
2023/10/05 12:32:42;;;;;;;;;;;;;;;16.90;48.81;96989.88;6318348;28;20529;-67
2023/10/05 12:35:52;;;;;;;10.32;7.10;;;;;;;16.85;48.62;96989.44;6318544;28;20320;-66
2023/10/05 12:38:57;;;;;;;11.13;7.00;;;;;;;16.78;48.76;96994.44;6318169;28;20067;-67
2023/10/05 12:42:01;;;;;;;6.78;5.20;;;;;;;16.61;49.08;96987.06;6318345;28;20126;-66
2023/10/05 12:45:04;;;;;;;7.68;5.95;;;;;;;16.57;49.47;96994.47;6300176;28;20388;-67
2023/10/05 12:48:06;;;;;;;7.10;5.57;;;;;;;16.48;49.64;96992.63;6318549;28;20043;-67
2023/10/05 12:51:12;;;;;;;6.07;5.43;;;;;;;16.30;49.96;96984.41;6318081;28;20056;-65
2023/10/05 12:54:19;;;;;;;11.85;7.38;;;;;;;16.16;50.47;96985.63;6300766;28;20052;-66
2023/10/05 12:57:22;;;;;;;7.38;5.57;;;;;;;16.22;50.58;96986.94;6318456;28;20058;-67
2023/10/05 13:00:29;;;;;;;;;;;;;;;16.16;50.46;96988.28;6318930;28;20044;-66
2023/10/05 13:03:34;;;;;;;7.75;4.55;;;;;;;16.02;51.17;96980.66;6318410;28;20378;-67
2023/10/05 13:06:41;;;;;;;9.73;5.40;;;;;;;15.97;51.56;96996.13;6318513;28;20036;-67
2023/10/05 13:09:58;;;;;;;7.47;4.60;;;;;;;15.92;51.71;96995.69;6318237;28;20486;-67
2023/10/05 13:13:09;;;;;;;6.63;4.07;;;;;;;15.95;51.63;96990.09;6318162;28;20048;-66
2023/10/05 13:16:21;;;;;;;5.85;3.10;;;;;;;15.82;51.70;96978.84;6318224;28;20509;-66
2023/10/05 13:19:30;;;;;;;6.88;3.10;;;;;;;15.71;52.14;96991.22;6318256;28;20048;-67
2023/10/05 13:22:33;;;;;;;6.00;4.18;;;;;;;15.61;52.41;96982.28;6318463;28;20415;-67
2023/10/05 13:25:34;;;;;;;6.15;2.97;;;;;;;15.56;52.66;96983.66;6318079;28;20566;-66
2023/10/05 13:28:38;;;;;;;6.90;3.83;;;;;;;15.46;52.91;96984.41;6321767;28;20036;-67
2023/10/05 13:31:39;;;;;;;;;;;;;;;15.38;52.88;96988.69;6323163;28;20035;-67
2023/10/05 13:34:45;;;;;;;5.32;3.22;;;;;;;15.25;53.38;96986.19;6304166;28;20310;-66
2023/10/05 13:37:54;;;;;;;9.10;4.07;;;;;;;15.34;53.67;96992.53;6322909;28;20078;-67
2023/10/05 13:40:58;;;;;;;8.48;4.13;;;;;;;15.32;53.78;96991.84;6322872;28;20040;-67
2023/10/05 13:44:00;;;;;;;4.57;2.70;;;;;;;15.19;54.16;96992.81;6322434;28;20525;-66
2023/10/05 13:47:09;;;;;;;4.15;2.95;;;;;;;15.24;54.17;96995.94;6322520;28;20088;-67
2023/10/05 13:50:12;;;;;;;4.43;3.00;;;;;;;15.20;54.28;96997.19;6321992;28;20522;-67
2023/10/05 13:53:20;;;;;;;6.28;3.42;;;;;;;15.22;54.15;96987.25;6322353;28;20135;-67
2023/10/05 13:56:31;;;;;;;8.50;2.90;;;;;;;14.99;54.72;96986.50;6303945;28;20040;-67
2023/10/05 13:59:37;;;;;;;;;;;;;;;14.87;54.43;96986.66;6322704;28;20040;-67
2023/10/05 14:02:41;;;;;;;9.13;3.50;;;;;;;14.88;55.06;96993.63;6322337;28;19920;-68
2023/10/05 14:05:51;;;;;;;5.32;3.33;;;;;;;14.90;55.51;96991.69;6322056;28;20402;-67
2023/10/05 14:08:53;;;;;;;4.65;3.40;;;;;;;14.87;55.52;96990.13;6321954;28;20032;-68
2023/10/05 14:11:55;;;;;;;5.88;3.22;;;;;;;14.88;55.53;96993.63;6321806;28;20047;-68
2023/10/05 14:15:02;;;;;;;5.03;2.90;;;;;;;14.85;55.52;96989.41;6322042;28;20044;-67
2023/10/05 14:18:12;;;;;;;4.82;2.60;;;;;;;14.79;55.66;96990.75;6322359;28;20031;-67
2023/10/05 14:21:16;;;;;;;7.55;3.15;;;;;;;14.75;55.83;96991.13;6321994;28;20040;-67
2023/10/05 14:24:20;;;;;;;6.55;3.25;;;;;;;14.71;55.83;96993.16;6321788;28;20036;-67
2023/10/05 14:27:29;;;;;;;3.83;2.72;;;;;;;14.74;55.79;96998.22;6321783;28;20190;-67
2023/10/05 14:30:32;;;;;;;7.45;3.30;;;;;;;14.74;55.83;97003.50;6321481;28;20494;-68
2023/10/05 14:33:37;;;;;;;11.75;4.57;;;;;;;14.66;56.00;96994.50;6321437;28;20040;-66
2023/10/05 14:36:44;;;;;;;6.68;3.67;;;;;;;14.80;55.66;96992.44;6321472;28;20048;-67
2023/10/05 14:39:50;;;;;;;4.78;3.58;;;;;;;14.79;55.66;96996.03;6321450;28;20044;-67
2023/10/05 14:42:55;;;;;;;6.68;3.97;;;;;;;14.82;55.56;96995.78;6321515;28;20046;-68
2023/10/05 14:46:00;;;;;;;7.40;3.80;;;;;;;14.79;55.60;96985.44;6286224;28;20054;-67
2023/10/05 14:49:04;;;;;;;4.43;3.40;;;;;;;14.76;55.68;96988.34;6321130;28;20414;-67
2023/10/05 14:52:08;;;;;;;7.88;3.92;;;;;;;14.74;55.86;96981.47;6320644;28;20498;-66
2023/10/05 14:55:17;;;;;;;6.20;4.40;;;;;;;14.89;55.49;96995.28;6321306;28;20044;-68
2023/10/05 14:58:22;;;;;;;6.25;4.38;;;;;;;14.85;55.16;96972.69;6321154;28;20414;-67
2023/10/05 15:01:23;;;;;;;8.55;4.30;;;;;;;14.87;55.34;96987.50;6320931;28;20040;-67
2023/10/05 15:04:25;;;;;;;9.05;4.13;;;;;;;14.78;55.51;96980.28;6320823;28;20059;-67
2023/10/05 15:07:30;;;;;;;6.50;3.00;;;;;;;14.63;55.86;96977.03;6320731;28;20040;-67
2023/10/05 15:10:32;;;;;;;4.20;3.05;;;;;;;14.71;55.52;96976.44;6320534;28;20054;-67
2023/10/05 15:13:34;;;;;;;6.15;3.33;;;;;;;14.71;55.47;96976.44;6320497;28;20411;-65
2023/10/05 15:16:35;;;;;;;4.07;3.22;;;;;;;14.59;55.86;96976.44;6320576;28;20036;-66
2023/10/05 15:19:44;;;;;;;5.65;3.58;;;;;;;14.61;55.62;96981.63;6320629;28;20044;-67
2023/10/05 15:22:48;;;;;;;5.15;2.95;;;;;;;14.62;55.68;96975.34;6320654;28;20450;-68
2023/10/05 15:25:53;;;;;;;4.18;3.03;;;;;;;14.60;55.68;96974.63;6320449;28;20032;-67
2023/10/05 15:28:55;;;;;;;5.13;3.13;;;;;;;14.65;55.59;96979.56;6320243;28;20520;-68
2023/10/05 15:31:56;;;;;;;3.75;2.92;;;;;;;14.45;55.92;96970.53;6318966;28;20052;-67